sensor_id;sensor_type;location;lat;lon;timestamp;pressure;altitude;pressure_sealevel;temperature
70668;BMP280;58242;51.250;-1.118;2024-01-06T00:00:45;99695.94;;;12.00
70668;BMP280;58242;51.250;-1.118;2024-01-06T00:03:11;99699.41;;;12.01
70668;BMP280;58242;51.250;-1.118;2024-01-06T00:05:36;99707.44;;;12.01
70668;BMP280;58242;51.250;-1.118;2024-01-06T00:08:01;99708.88;;;11.98
70668;BMP280;58242;51.250;-1.118;2024-01-06T00:10:27;99708.88;;;11.98
70668;BMP280;58242;51.250;-1.118;2024-01-06T00:12:52;99708.78;;;11.95
70668;BMP280;58242;51.250;-1.118;2024-01-06T00:15:17;99717.19;;;11.94
70668;BMP280;58242;51.250;-1.118;2024-01-06T00:17:43;99721.66;;;11.90
70668;BMP280;58242;51.250;-1.118;2024-01-06T00:20:08;99719.66;;;11.87
70668;BMP280;58242;51.250;-1.118;2024-01-06T00:22:34;99726.91;;;11.86
70668;BMP280;58242;51.250;-1.118;2024-01-06T00:25:00;99732.69;;;11.88
70668;BMP280;58242;51.250;-1.118;2024-01-06T00:27:25;99733.16;;;11.90
70668;BMP280;58242;51.250;-1.118;2024-01-06T00:29:51;99731.69;;;11.93
70668;BMP280;58242;51.250;-1.118;2024-01-06T00:32:16;99728.00;;;11.97
70668;BMP280;58242;51.250;-1.118;2024-01-06T00:34:41;99736.53;;;12.02
70668;BMP280;58242;51.250;-1.118;2024-01-06T00:37:07;99730.53;;;12.05
70668;BMP280;58242;51.250;-1.118;2024-01-06T00:39:32;99726.72;;;12.06
70668;BMP280;58242;51.250;-1.118;2024-01-06T00:41:58;99734.41;;;12.08
70668;BMP280;58242;51.250;-1.118;2024-01-06T00:44:23;99744.34;;;12.07
70668;BMP280;58242;51.250;-1.118;2024-01-06T00:46:48;99744.34;;;12.07
70668;BMP280;58242;51.250;-1.118;2024-01-06T00:49:14;99752.06;;;12.09
70668;BMP280;58242;51.250;-1.118;2024-01-06T00:51:39;99749.72;;;12.07
70668;BMP280;58242;51.250;-1.118;2024-01-06T00:54:05;99748.94;;;12.07
70668;BMP280;58242;51.250;-1.118;2024-01-06T00:56:30;99750.81;;;12.06
70668;BMP280;58242;51.250;-1.118;2024-01-06T00:58:55;99760.00;;;12.05
70668;BMP280;58242;51.250;-1.118;2024-01-06T01:01:21;99753.50;;;12.06
70668;BMP280;58242;51.250;-1.118;2024-01-06T01:03:46;99754.75;;;12.09
70668;BMP280;58242;51.250;-1.118;2024-01-06T01:06:12;99754.84;;;12.12
70668;BMP280;58242;51.250;-1.118;2024-01-06T01:08:37;99760.63;;;12.14
70668;BMP280;58242;51.250;-1.118;2024-01-06T01:11:03;99756.50;;;12.16
70668;BMP280;58242;51.250;-1.118;2024-01-06T01:13:28;99756.16;;;12.18
70668;BMP280;58242;51.250;-1.118;2024-01-06T01:15:53;99753.91;;;12.20
70668;BMP280;58242;51.250;-1.118;2024-01-06T01:18:19;99751.66;;;12.22
70668;BMP280;58242;51.250;-1.118;2024-01-06T01:20:44;99750.13;;;12.21
70668;BMP280;58242;51.250;-1.118;2024-01-06T01:23:10;99757.38;;;12.20
70668;BMP280;58242;51.250;-1.118;2024-01-06T01:25:35;99760.38;;;12.19
70668;BMP280;58242;51.250;-1.118;2024-01-06T01:28:00;99759.97;;;12.17
70668;BMP280;58242;51.250;-1.118;2024-01-06T01:30:27;99759.19;;;12.16
70668;BMP280;58242;51.250;-1.118;2024-01-06T01:32:52;99767.53;;;12.15
70668;BMP280;58242;51.250;-1.118;2024-01-06T01:35:18;99762.88;;;12.12
70668;BMP280;58242;51.250;-1.118;2024-01-06T01:37:43;99766.56;;;12.08
70668;BMP280;58242;51.250;-1.118;2024-01-06T01:40:09;99767.94;;;12.02
70668;BMP280;58242;51.250;-1.118;2024-01-06T01:42:34;99766.16;;;11.94
70668;BMP280;58242;51.250;-1.118;2024-01-06T01:45:00;99767.50;;;11.88
70668;BMP280;58242;51.250;-1.118;2024-01-06T01:47:26;99770.78;;;11.82
70668;BMP280;58242;51.250;-1.118;2024-01-06T01:49:52;99779.38;;;11.76
70668;BMP280;58242;51.250;-1.118;2024-01-06T01:52:18;99776.13;;;11.70
70668;BMP280;58242;51.250;-1.118;2024-01-06T01:54:45;99778.25;;;11.65
70668;BMP280;58242;51.250;-1.118;2024-01-06T01:57:12;99784.66;;;11.61
70668;BMP280;58242;51.250;-1.118;2024-01-06T01:59:38;99784.41;;;11.54
70668;BMP280;58242;51.250;-1.118;2024-01-06T02:02:04;99793.78;;;11.48
70668;BMP280;58242;51.250;-1.118;2024-01-06T02:04:29;99794.88;;;11.47
70668;BMP280;58242;51.250;-1.118;2024-01-06T02:06:55;99791.00;;;11.45
70668;BMP280;58242;51.250;-1.118;2024-01-06T02:09:20;99794.09;;;11.46
70668;BMP280;58242;51.250;-1.118;2024-01-06T02:11:48;99798.47;;;11.51
70668;BMP280;58242;51.250;-1.118;2024-01-06T02:14:13;99797.78;;;11.54
70668;BMP280;58242;51.250;-1.118;2024-01-06T02:16:38;99800.25;;;11.59
70668;BMP280;58242;51.250;-1.118;2024-01-06T02:19:05;99804.91;;;11.62
70668;BMP280;58242;51.250;-1.118;2024-01-06T02:21:33;99809.06;;;11.59
70668;BMP280;58242;51.250;-1.118;2024-01-06T02:24:00;99809.28;;;11.54
70668;BMP280;58242;51.250;-1.118;2024-01-06T02:26:26;99816.41;;;11.50
70668;BMP280;58242;51.250;-1.118;2024-01-06T02:28:51;99828.13;;;11.46
70668;BMP280;58242;51.250;-1.118;2024-01-06T02:31:17;99822.66;;;11.43
70668;BMP280;58242;51.250;-1.118;2024-01-06T02:33:42;99831.94;;;11.45
70668;BMP280;58242;51.250;-1.118;2024-01-06T02:36:07;99825.91;;;11.48
70668;BMP280;58242;51.250;-1.118;2024-01-06T02:38:33;99823.34;;;11.51
70668;BMP280;58242;51.250;-1.118;2024-01-06T02:40:58;99837.28;;;11.57
70668;BMP280;58242;51.250;-1.118;2024-01-06T02:43:23;99837.41;;;11.60
70668;BMP280;58242;51.250;-1.118;2024-01-06T02:45:49;99832.94;;;11.64
70668;BMP280;58242;51.250;-1.118;2024-01-06T02:48:15;99835.72;;;11.67
70668;BMP280;58242;51.250;-1.118;2024-01-06T02:50:40;99836.63;;;11.71
70668;BMP280;58242;51.250;-1.118;2024-01-06T02:53:06;99832.94;;;11.76
70668;BMP280;58242;51.250;-1.118;2024-01-06T02:55:31;99838.03;;;11.80
70668;BMP280;58242;51.250;-1.118;2024-01-06T02:57:56;99835.94;;;11.86
70668;BMP280;58242;51.250;-1.118;2024-01-06T03:00:22;99834.13;;;11.90
70668;BMP280;58242;51.250;-1.118;2024-01-06T03:02:47;99843.41;;;11.92
70668;BMP280;58242;51.250;-1.118;2024-01-06T03:05:12;99838.81;;;11.93
70668;BMP280;58242;51.250;-1.118;2024-01-06T03:07:38;99844.63;;;11.95
70668;BMP280;58242;51.250;-1.118;2024-01-06T03:10:03;99846.63;;;11.97
70668;BMP280;58242;51.250;-1.118;2024-01-06T03:12:29;99855.09;;;11.99
70668;BMP280;58242;51.250;-1.118;2024-01-06T03:14:54;99848.31;;;12.02
70668;BMP280;58242;51.250;-1.118;2024-01-06T03:17:19;99851.31;;;12.00
70668;BMP280;58242;51.250;-1.118;2024-01-06T03:19:45;99847.84;;;12.00
70668;BMP280;58242;51.250;-1.118;2024-01-06T03:22:10;99860.81;;;11.98
70668;BMP280;58242;51.250;-1.118;2024-01-06T03:24:35;99855.88;;;12.00
70668;BMP280;58242;51.250;-1.118;2024-01-06T03:27:01;99869.75;;;12.02
70668;BMP280;58242;51.250;-1.118;2024-01-06T03:29:26;99874.41;;;12.05
70668;BMP280;58242;51.250;-1.118;2024-01-06T03:31:51;99867.59;;;12.07
70668;BMP280;58242;51.250;-1.118;2024-01-06T03:34:17;99882.22;;;12.10
70668;BMP280;58242;51.250;-1.118;2024-01-06T03:36:42;99874.53;;;12.08
70668;BMP280;58242;51.250;-1.118;2024-01-06T03:39:07;99873.72;;;12.08
70668;BMP280;58242;51.250;-1.118;2024-01-06T03:41:33;99874.41;;;12.05
70668;BMP280;58242;51.250;-1.118;2024-01-06T03:43:58;99874.97;;;11.98
70668;BMP280;58242;51.250;-1.118;2024-01-06T03:46:24;99874.31;;;11.90
70668;BMP280;58242;51.250;-1.118;2024-01-06T03:48:49;99885.13;;;11.81
70668;BMP280;58242;51.250;-1.118;2024-01-06T03:51:15;99893.75;;;11.75
70668;BMP280;58242;51.250;-1.118;2024-01-06T03:53:40;99883.25;;;11.70
70668;BMP280;58242;51.250;-1.118;2024-01-06T03:56:06;99885.47;;;11.68
70668;BMP280;58242;51.250;-1.118;2024-01-06T03:58:32;99895.84;;;11.70
70668;BMP280;58242;51.250;-1.118;2024-01-06T04:00:57;99895.84;;;11.70
70668;BMP280;58242;51.250;-1.118;2024-01-06T04:03:23;99896.16;;;11.68
70668;BMP280;58242;51.250;-1.118;2024-01-06T04:05:48;99902.66;;;11.67
70668;BMP280;58242;51.250;-1.118;2024-01-06T04:08:13;99897.63;;;11.66
70668;BMP280;58242;51.250;-1.118;2024-01-06T04:10:39;99903.66;;;11.63
70668;BMP280;58242;51.250;-1.118;2024-01-06T04:13:06;99906.34;;;11.63
70668;BMP280;58242;51.250;-1.118;2024-01-06T04:15:32;99910.47;;;11.61
70668;BMP280;58242;51.250;-1.118;2024-01-06T04:18:01;99909.31;;;11.62
70668;BMP280;58242;51.250;-1.118;2024-01-06T04:20:27;99910.91;;;11.63
70668;BMP280;58242;51.250;-1.118;2024-01-06T04:22:52;99915.94;;;11.64
70668;BMP280;58242;51.250;-1.118;2024-01-06T04:25:18;99916.25;;;11.63
70668;BMP280;58242;51.250;-1.118;2024-01-06T04:27:43;99908.22;;;11.63
70668;BMP280;58242;51.250;-1.118;2024-01-06T04:30:10;99908.22;;;11.63
70668;BMP280;58242;51.250;-1.118;2024-01-06T04:32:36;99917.38;;;11.62
70668;BMP280;58242;51.250;-1.118;2024-01-06T04:35:01;99924.28;;;11.63
70668;BMP280;58242;51.250;-1.118;2024-01-06T04:37:26;99927.44;;;11.64
70668;BMP280;58242;51.250;-1.118;2024-01-06T04:39:52;99925.50;;;11.65
70668;BMP280;58242;51.250;-1.118;2024-01-06T04:42:17;99928.97;;;11.65
70668;BMP280;58242;51.250;-1.118;2024-01-06T04:44:44;99936.34;;;11.68
70668;BMP280;58242;51.250;-1.118;2024-01-06T04:47:10;99940.56;;;11.69
70668;BMP280;58242;51.250;-1.118;2024-01-06T04:49:35;99938.38;;;11.71
70668;BMP280;58242;51.250;-1.118;2024-01-06T04:52:00;99942.25;;;11.74
70668;BMP280;58242;51.250;-1.118;2024-01-06T04:54:26;99939.69;;;11.77
70668;BMP280;58242;51.250;-1.118;2024-01-06T04:56:51;99945.50;;;11.79
70668;BMP280;58242;51.250;-1.118;2024-01-06T04:59:16;99942.16;;;11.82
70668;BMP280;58242;51.250;-1.118;2024-01-06T05:01:42;99938.03;;;11.84
70668;BMP280;58242;51.250;-1.118;2024-01-06T05:04:07;99945.75;;;11.86
70668;BMP280;58242;51.250;-1.118;2024-01-06T05:06:32;99943.16;;;11.89
70668;BMP280;58242;51.250;-1.118;2024-01-06T05:08:58;99948.97;;;11.91
70668;BMP280;58242;51.250;-1.118;2024-01-06T05:11:23;99947.53;;;11.94
70668;BMP280;58242;51.250;-1.118;2024-01-06T05:13:48;99953.78;;;11.97
70668;BMP280;58242;51.250;-1.118;2024-01-06T05:16:14;99960.69;;;11.98
70668;BMP280;58242;51.250;-1.118;2024-01-06T05:18:39;99963.81;;;12.00
70668;BMP280;58242;51.250;-1.118;2024-01-06T05:21:04;99968.50;;;12.03
70668;BMP280;58242;51.250;-1.118;2024-01-06T05:23:30;99969.75;;;12.06
70668;BMP280;58242;51.250;-1.118;2024-01-06T05:25:55;99971.75;;;12.09
70668;BMP280;58242;51.250;-1.118;2024-01-06T05:28:21;99975.66;;;12.11
70668;BMP280;58242;51.250;-1.118;2024-01-06T05:30:46;99969.19;;;12.12
70668;BMP280;58242;51.250;-1.118;2024-01-06T05:33:12;99977.66;;;12.14
70668;BMP280;58242;51.250;-1.118;2024-01-06T05:35:39;99978.91;;;12.16
70668;BMP280;58242;51.250;-1.118;2024-01-06T05:38:04;99978.56;;;12.18
70668;BMP280;58242;51.250;-1.118;2024-01-06T05:40:29;99987.72;;;12.17
70668;BMP280;58242;51.250;-1.118;2024-01-06T05:42:55;99990.41;;;12.17
70668;BMP280;58242;51.250;-1.118;2024-01-06T05:45:22;99985.06;;;12.17
70668;BMP280;58242;51.250;-1.118;2024-01-06T05:47:47;99989.25;;;12.18
70668;BMP280;58242;51.250;-1.118;2024-01-06T05:50:15;99989.72;;;12.20
70668;BMP280;58242;51.250;-1.118;2024-01-06T05:52:40;99997.41;;;12.21
70668;BMP280;58242;51.250;-1.118;2024-01-06T05:55:06;100002.44;;;12.23
70668;BMP280;58242;51.250;-1.118;2024-01-06T05:57:32;100010.97;;;12.25
70668;BMP280;58242;51.250;-1.118;2024-01-06T05:59:57;100010.59;;;12.26
70668;BMP280;58242;51.250;-1.118;2024-01-06T06:02:22;100015.28;;;12.29
70668;BMP280;58242;51.250;-1.118;2024-01-06T06:04:48;100020.75;;;12.32
70668;BMP280;58242;51.250;-1.118;2024-01-06T06:07:13;100018.53;;;12.34
70668;BMP280;58242;51.250;-1.118;2024-01-06T06:09:38;100025.91;;;12.37
70668;BMP280;58242;51.250;-1.118;2024-01-06T06:12:05;100029.84;;;12.40
70668;BMP280;58242;51.250;-1.118;2024-01-06T06:14:31;100027.59;;;12.42
70668;BMP280;58242;51.250;-1.118;2024-01-06T06:16:56;100032.63;;;12.43
70668;BMP280;58242;51.250;-1.118;2024-01-06T06:19:22;100033.06;;;12.45
70668;BMP280;58242;51.250;-1.118;2024-01-06T06:21:47;100037.31;;;12.46
70668;BMP280;58242;51.250;-1.118;2024-01-06T06:24:12;100042.31;;;12.48
70668;BMP280;58242;51.250;-1.118;2024-01-06T06:26:38;100051.59;;;12.50
70668;BMP280;58242;51.250;-1.118;2024-01-06T06:29:04;100057.41;;;12.52
70668;BMP280;58242;51.250;-1.118;2024-01-06T06:31:29;100052.50;;;12.54
70668;BMP280;58242;51.250;-1.118;2024-01-06T06:33:54;100062.88;;;12.55
70668;BMP280;58242;51.250;-1.118;2024-01-06T06:36:20;100064.44;;;12.56
70668;BMP280;58242;51.250;-1.118;2024-01-06T06:38:45;100071.84;;;12.59
70668;BMP280;58242;51.250;-1.118;2024-01-06T06:41:11;100070.72;;;12.60
70668;BMP280;58242;51.250;-1.118;2024-01-06T06:43:36;100073.88;;;12.62
70668;BMP280;58242;51.250;-1.118;2024-01-06T06:46:02;100081.56;;;12.64
70668;BMP280;58242;51.250;-1.118;2024-01-06T06:48:27;100087.38;;;12.66
70668;BMP280;58242;51.250;-1.118;2024-01-06T06:50:53;100084.72;;;12.66
70668;BMP280;58242;51.250;-1.118;2024-01-06T06:53:18;100093.19;;;12.67
70668;BMP280;58242;51.250;-1.118;2024-01-06T06:55:43;100093.19;;;12.67
70668;BMP280;58242;51.250;-1.118;2024-01-06T06:58:09;100101.69;;;12.69
70668;BMP280;58242;51.250;-1.118;2024-01-06T07:00:34;100100.91;;;12.69
70668;BMP280;58242;51.250;-1.118;2024-01-06T07:03:00;100103.59;;;12.69
70668;BMP280;58242;51.250;-1.118;2024-01-06T07:05:25;100104.69;;;12.68
70668;BMP280;58242;51.250;-1.118;2024-01-06T07:07:51;100111.16;;;12.67
70668;BMP280;58242;51.250;-1.118;2024-01-06T07:10:16;100110.38;;;12.66
70668;BMP280;58242;51.250;-1.118;2024-01-06T07:12:42;100116.88;;;12.66
70668;BMP280;58242;51.250;-1.118;2024-01-06T07:15:08;100118.31;;;12.63
70668;BMP280;58242;51.250;-1.118;2024-01-06T07:17:36;100128.25;;;12.63
70668;BMP280;58242;51.250;-1.118;2024-01-06T07:20:04;100130.50;;;12.61
70668;BMP280;58242;51.250;-1.118;2024-01-06T07:22:29;100129.41;;;12.62
70668;BMP280;58242;51.250;-1.118;2024-01-06T07:24:55;100136.66;;;12.61
70668;BMP280;58242;51.250;-1.118;2024-01-06T07:27:20;100147.72;;;12.60
70668;BMP280;58242;51.250;-1.118;2024-01-06T07:29:45;100150.38;;;12.60
70668;BMP280;58242;51.250;-1.118;2024-01-06T07:32:11;100154.19;;;12.59
70668;BMP280;58242;51.250;-1.118;2024-01-06T07:34:36;100159.53;;;12.59
70668;BMP280;58242;51.250;-1.118;2024-01-06T07:37:02;100159.06;;;12.57
70668;BMP280;58242;51.250;-1.118;2024-01-06T07:39:27;100169.81;;;12.57
70668;BMP280;58242;51.250;-1.118;2024-01-06T07:41:52;100168.69;;;12.58
70668;BMP280;58242;51.250;-1.118;2024-01-06T07:44:18;100167.59;;;12.59
70668;BMP280;58242;51.250;-1.118;2024-01-06T07:46:49;100174.53;;;12.60
70668;BMP280;58242;51.250;-1.118;2024-01-06T07:49:15;100184.00;;;12.57
70668;BMP280;58242;51.250;-1.118;2024-01-06T07:51:40;100187.47;;;12.58
70668;BMP280;58242;51.250;-1.118;2024-01-06T07:54:06;100192.81;;;12.58
70668;BMP280;58242;51.250;-1.118;2024-01-06T07:56:34;100187.47;;;12.58
70668;BMP280;58242;51.250;-1.118;2024-01-06T07:58:59;100195.97;;;12.60
70668;BMP280;58242;51.250;-1.118;2024-01-06T08:01:24;100194.41;;;12.59
70668;BMP280;58242;51.250;-1.118;2024-01-06T08:03:50;100200.56;;;12.59
70668;BMP280;58242;51.250;-1.118;2024-01-06T08:06:15;100209.38;;;12.60
70668;BMP280;58242;51.250;-1.118;2024-01-06T08:08:41;100206.72;;;12.60
70668;BMP280;58242;51.250;-1.118;2024-01-06T08:11:06;100209.38;;;12.60
70668;BMP280;58242;51.250;-1.118;2024-01-06T08:13:31;100214.75;;;12.60
70668;BMP280;58242;51.250;-1.118;2024-01-06T08:15:57;100216.31;;;12.61
70668;BMP280;58242;51.250;-1.118;2024-01-06T08:18:22;100214.75;;;12.60
70668;BMP280;58242;51.250;-1.118;2024-01-06T08:20:47;100227.84;;;12.61
70668;BMP280;58242;51.250;-1.118;2024-01-06T08:23:13;100232.41;;;12.61
70668;BMP280;58242;51.250;-1.118;2024-01-06T08:25:38;100237.31;;;12.59
70668;BMP280;58242;51.250;-1.118;2024-01-06T08:28:04;100237.31;;;12.59
70668;BMP280;58242;51.250;-1.118;2024-01-06T08:30:29;100258.75;;;12.59
70668;BMP280;58242;51.250;-1.118;2024-01-06T08:32:54;100256.72;;;12.56
70668;BMP280;58242;51.250;-1.118;2024-01-06T08:35:20;100256.28;;;12.54
70668;BMP280;58242;51.250;-1.118;2024-01-06T08:37:45;100268.91;;;12.53
70668;BMP280;58242;51.250;-1.118;2024-01-06T08:40:12;100265.44;;;12.53
70668;BMP280;58242;51.250;-1.118;2024-01-06T08:42:37;100266.09;;;12.50
70668;BMP280;58242;51.250;-1.118;2024-01-06T08:45:03;100271.00;;;12.48
70668;BMP280;58242;51.250;-1.118;2024-01-06T08:47:30;100268.66;;;12.47
70668;BMP280;58242;51.250;-1.118;2024-01-06T08:49:55;100270.09;;;12.44
70668;BMP280;58242;51.250;-1.118;2024-01-06T08:52:21;100280.38;;;12.42
70668;BMP280;58242;51.250;-1.118;2024-01-06T08:54:46;100287.63;;;12.42
70668;BMP280;58242;51.250;-1.118;2024-01-06T08:57:11;100293.31;;;12.40
70668;BMP280;58242;51.250;-1.118;2024-01-06T08:59:37;100294.44;;;12.39
70668;BMP280;58242;51.250;-1.118;2024-01-06T09:02:03;100297.44;;;12.38
70668;BMP280;58242;51.250;-1.118;2024-01-06T09:04:28;100304.69;;;12.37
70668;BMP280;58242;51.250;-1.118;2024-01-06T09:06:54;100305.81;;;12.36
70668;BMP280;58242;51.250;-1.118;2024-01-06T09:09:19;100307.38;;;12.37
70668;BMP280;58242;51.250;-1.118;2024-01-06T09:11:44;100307.63;;;12.44
70668;BMP280;58242;51.250;-1.118;2024-01-06T09:14:11;100310.91;;;12.49
70668;BMP280;58242;51.250;-1.118;2024-01-06T09:16:36;100313.03;;;12.56
70668;BMP280;58242;51.250;-1.118;2024-01-06T09:19:02;100319.47;;;12.63
70668;BMP280;58242;51.250;-1.118;2024-01-06T09:21:27;100327.97;;;12.65
70668;BMP280;58242;51.250;-1.118;2024-01-06T09:23:53;100326.09;;;12.66
70668;BMP280;58242;51.250;-1.118;2024-01-06T09:26:18;100324.03;;;12.63
70668;BMP280;58242;51.250;-1.118;2024-01-06T09:28:44;100330.84;;;12.60
70668;BMP280;58242;51.250;-1.118;2024-01-06T09:31:09;100333.25;;;12.53
70668;BMP280;58242;51.250;-1.118;2024-01-06T09:33:35;100340.72;;;12.48
70668;BMP280;58242;51.250;-1.118;2024-01-06T09:36:00;100341.50;;;12.48
70668;BMP280;58242;51.250;-1.118;2024-01-06T09:38:26;100347.91;;;12.56
70668;BMP280;58242;51.250;-1.118;2024-01-06T09:40:53;100349.44;;;12.65
70668;BMP280;58242;51.250;-1.118;2024-01-06T09:43:19;100360.72;;;12.70
70668;BMP280;58242;51.250;-1.118;2024-01-06T09:45:51;100369.69;;;12.74
70668;BMP280;58242;51.250;-1.118;2024-01-06T09:48:20;100368.25;;;12.77
70668;BMP280;58242;51.250;-1.118;2024-01-06T09:50:49;100378.00;;;12.81
70668;BMP280;58242;51.250;-1.118;2024-01-06T09:53:17;100372.75;;;12.84
70668;BMP280;58242;51.250;-1.118;2024-01-06T09:55:44;100380.13;;;12.87
70668;BMP280;58242;51.250;-1.118;2024-01-06T09:58:10;100386.06;;;12.93
70668;BMP280;58242;51.250;-1.118;2024-01-06T10:00:35;100397.59;;;12.93
70668;BMP280;58242;51.250;-1.118;2024-01-06T10:03:01;100389.22;;;12.95
70668;BMP280;58242;51.250;-1.118;2024-01-06T10:05:26;100393.47;;;12.96
70668;BMP280;58242;51.250;-1.118;2024-01-06T10:07:52;100393.91;;;12.98
70668;BMP280;58242;51.250;-1.118;2024-01-06T10:10:17;100399.28;;;12.98
70668;BMP280;58242;51.250;-1.118;2024-01-06T10:12:42;100399.28;;;12.98
70668;BMP280;58242;51.250;-1.118;2024-01-06T10:15:09;100401.97;;;12.98
70668;BMP280;58242;51.250;-1.118;2024-01-06T10:17:41;100406.34;;;13.02
70668;BMP280;58242;51.250;-1.118;2024-01-06T10:20:12;100415.00;;;13.07
70668;BMP280;58242;51.250;-1.118;2024-01-06T10:22:38;100409.75;;;13.11
70668;BMP280;58242;51.250;-1.118;2024-01-06T10:25:06;100411.44;;;13.15
70668;BMP280;58242;51.250;-1.118;2024-01-06T10:27:34;100412.78;;;13.21
70668;BMP280;58242;51.250;-1.118;2024-01-06T10:30:00;100417.94;;;13.26
70668;BMP280;58242;51.250;-1.118;2024-01-06T10:32:25;100420.41;;;13.31
70668;BMP280;58242;51.250;-1.118;2024-01-06T10:34:54;100420.19;;;13.35
70668;BMP280;58242;51.250;-1.118;2024-01-06T10:37:20;100424.91;;;13.38
70668;BMP280;58242;51.250;-1.118;2024-01-06T10:39:45;100424.38;;;13.45
70668;BMP280;58242;51.250;-1.118;2024-01-06T10:42:11;100420.91;;;13.56
70668;BMP280;58242;51.250;-1.118;2024-01-06T10:44:39;100410.63;;;13.69
70668;BMP280;58242;51.250;-1.118;2024-01-06T10:47:06;100418.84;;;13.85
70668;BMP280;58242;51.250;-1.118;2024-01-06T10:49:32;100426.09;;;13.96
70668;BMP280;58242;51.250;-1.118;2024-01-06T10:51:58;100432.50;;;14.03
70668;BMP280;58242;51.250;-1.118;2024-01-06T10:54:24;100427.91;;;14.03
70668;BMP280;58242;51.250;-1.118;2024-01-06T10:56:51;100426.00;;;14.04
70668;BMP280;58242;51.250;-1.118;2024-01-06T10:59:18;100439.88;;;14.06
70668;BMP280;58242;51.250;-1.118;2024-01-06T11:01:48;100433.84;;;14.09
70668;BMP280;58242;51.250;-1.118;2024-01-06T11:04:15;100432.38;;;14.11
70668;BMP280;58242;51.250;-1.118;2024-01-06T11:06:41;100437.06;;;14.14
70668;BMP280;58242;51.250;-1.118;2024-01-06T11:09:18;100426.22;;;14.22
70668;BMP280;58242;51.250;-1.118;2024-01-06T11:11:45;100432.81;;;14.25
70668;BMP280;58242;51.250;-1.118;2024-01-06T11:14:24;100436.06;;;14.30
70668;BMP280;58242;51.250;-1.118;2024-01-06T11:16:51;100429.09;;;14.29
70668;BMP280;58242;51.250;-1.118;2024-01-06T11:22:26;100433.50;;;14.22
70668;BMP280;58242;51.250;-1.118;2024-01-06T11:24:54;100430.00;;;14.21
70668;BMP280;58242;51.250;-1.118;2024-01-06T11:27:25;100431.91;;;14.21
70668;BMP280;58242;51.250;-1.118;2024-01-06T11:29:58;100435.06;;;14.23
70668;BMP280;58242;51.250;-1.118;2024-01-06T11:34:51;100433.13;;;14.47
70668;BMP280;58242;51.250;-1.118;2024-01-06T11:37:19;100444.84;;;14.66
70668;BMP280;58242;51.250;-1.118;2024-01-06T11:39:45;100434.81;;;14.78
70668;BMP280;58242;51.250;-1.118;2024-01-06T11:42:11;100441.19;;;14.85
70668;BMP280;58242;51.250;-1.118;2024-01-06T11:44:38;100442.31;;;14.96
70668;BMP280;58242;51.250;-1.118;2024-01-06T11:47:04;100432.84;;;15.02
70668;BMP280;58242;51.250;-1.118;2024-01-06T11:49:30;100433.03;;;15.08
70668;BMP280;58242;51.250;-1.118;2024-01-06T11:51:59;100440.34;;;15.08
70668;BMP280;58242;51.250;-1.118;2024-01-06T11:54:25;100438.69;;;15.04
70668;BMP280;58242;51.250;-1.118;2024-01-06T11:56:50;100442.50;;;15.03
70668;BMP280;58242;51.250;-1.118;2024-01-06T11:59:19;100432.53;;;15.03
70668;BMP280;58242;51.250;-1.118;2024-01-06T12:01:45;100442.94;;;15.05
70668;BMP280;58242;51.250;-1.118;2024-01-06T12:04:13;100432.53;;;15.03
70668;BMP280;58242;51.250;-1.118;2024-01-06T12:06:39;100435.13;;;15.00
70668;BMP280;58242;51.250;-1.118;2024-01-06T12:09:10;100439.72;;;14.99
70668;BMP280;58242;51.250;-1.118;2024-01-06T12:11:36;100436.44;;;15.06
70668;BMP280;58242;51.250;-1.118;2024-01-06T12:14:04;100436.63;;;15.12
70668;BMP280;58242;51.250;-1.118;2024-01-06T12:16:30;100434.56;;;15.21
70668;BMP280;58242;51.250;-1.118;2024-01-06T12:18:57;100431.72;;;15.29
70668;BMP280;58242;51.250;-1.118;2024-01-06T12:21:25;100436.50;;;15.36
70668;BMP280;58242;51.250;-1.118;2024-01-06T12:23:51;100435.00;;;15.38
70668;BMP280;58242;51.250;-1.118;2024-01-06T12:26:17;100438.06;;;15.37
70668;BMP280;58242;51.250;-1.118;2024-01-06T12:28:46;100429.13;;;15.33
70668;BMP280;58242;51.250;-1.118;2024-01-06T12:31:12;100434.75;;;15.28
70668;BMP280;58242;51.250;-1.118;2024-01-06T12:33:40;100426.91;;;15.23
70668;BMP280;58242;51.250;-1.118;2024-01-06T12:36:08;100438.13;;;15.25
70668;BMP280;58242;51.250;-1.118;2024-01-06T12:38:36;100439.91;;;15.33
70668;BMP280;58242;51.250;-1.118;2024-01-06T12:41:03;100436.06;;;15.34
70668;BMP280;58242;51.250;-1.118;2024-01-06T12:43:29;100437.91;;;15.30
70668;BMP280;58242;51.250;-1.118;2024-01-06T12:45:54;100443.53;;;15.25
70668;BMP280;58242;51.250;-1.118;2024-01-06T12:48:22;100442.03;;;15.27
70668;BMP280;58242;51.250;-1.118;2024-01-06T12:50:47;100442.81;;;15.28
70668;BMP280;58242;51.250;-1.118;2024-01-06T12:53:13;100440.75;;;15.22
70668;BMP280;58242;51.250;-1.118;2024-01-06T12:55:40;100448.50;;;15.11
70668;BMP280;58242;51.250;-1.118;2024-01-06T12:58:05;100443.81;;;15.08
70668;BMP280;58242;51.250;-1.118;2024-01-06T13:00:31;100442.47;;;15.14
70668;BMP280;58242;51.250;-1.118;2024-01-06T13:02:56;100434.09;;;15.19
70668;BMP280;58242;51.250;-1.118;2024-01-06T13:05:21;100431.00;;;15.17
70668;BMP280;58242;51.250;-1.118;2024-01-06T13:07:48;100431.94;;;15.09
70668;BMP280;58242;51.250;-1.118;2024-01-06T13:10:14;100431.97;;;14.98
70668;BMP280;58242;51.250;-1.118;2024-01-06T13:12:40;100437.16;;;14.91
70668;BMP280;58242;51.250;-1.118;2024-01-06T13:15:06;100440.84;;;14.87
70668;BMP280;58242;51.250;-1.118;2024-01-06T13:17:31;100445.34;;;14.83
70668;BMP280;58242;51.250;-1.118;2024-01-06T13:19:57;100439.78;;;14.76
70668;BMP280;58242;51.250;-1.118;2024-01-06T13:22:23;100450.34;;;14.69
70668;BMP280;58242;51.250;-1.118;2024-01-06T13:24:48;100440.50;;;14.61
70668;BMP280;58242;51.250;-1.118;2024-01-06T13:27:14;100445.31;;;14.56
70668;BMP280;58242;51.250;-1.118;2024-01-06T13:29:40;100447.56;;;14.54
70668;BMP280;58242;51.250;-1.118;2024-01-06T13:32:05;100446.78;;;14.54
70668;BMP280;58242;51.250;-1.118;2024-01-06T13:34:31;100447.56;;;14.54
70668;BMP280;58242;51.250;-1.118;2024-01-06T13:36:56;100452.59;;;14.55
70668;BMP280;58242;51.250;-1.118;2024-01-06T13:39:23;100449.91;;;14.55
70668;BMP280;58242;51.250;-1.118;2024-01-06T13:41:49;100451.47;;;14.56
70668;BMP280;58242;51.250;-1.118;2024-01-06T13:44:15;100450.00;;;14.59
70668;BMP280;58242;51.250;-1.118;2024-01-06T13:46:41;100447.78;;;14.61